• Join FlightAware (Why Join?)
  • Login
  • US Flag 
 
08:31AM EST


 

Airport Tracker/Info


-or-


 

Live Flight TrackerFlight Track Log ✈ N775NC ✈ 11-Aug-2013 ✈ KATL - KLIT

Flight Track Log - Related Links

Times and Time Zones

All times are in EDT time to prevent confusion due to time zone crossing. See the N775NC flight status page for this flight to view local times or setup timezone preferences in your user account.

Time Position Orientation Groundspeed Altitude Reporting Facility
EDT Latitude Longitude Course Direction KTS MPH feet Rate Location/Type
07:58PM 33.6167 -84.5000 244° Southwest 228 262 2,700  Level Atlanta TRACON
07:59PM 33.5833 -84.5833 244° Southwest 271 312 4,900 2,460 Climbing Atlanta TRACON
08:00PM 33.5667 -84.6667 257° West 286 329 7,700 2,160 Climbing Atlanta TRACON
08:01PM 33.5625 -84.7592 267° West 299 344 9,400 1,620 Climbing Atlanta Center
08:02PM 33.5661 -84.8689 272° West 333 383 11,000 1,500 Climbing Atlanta Center
08:03PM 33.5797 -84.9914 278° West 338 389 12,400 1,620 Climbing Atlanta Center
08:04PM 33.6039 -85.1089 284° West 352 405 14,300 1,860 Climbing Atlanta Center
08:05PM 33.6172 -85.2311 277° West 358 412 16,200 1,740 Climbing Atlanta Center
08:06PM 33.6119 -85.3533 267° West 363 418 17,800 1,440 Climbing Atlanta Center
08:07PM 33.6189 -85.4806 274° West 375 432 19,100 1,260 Climbing Atlanta Center
08:08PM 33.6319 -85.6081 277° West 384 442 20,400 1,260 Climbing Atlanta Center
08:09PM 33.6489 -85.7408 279° West 391 450 21,700 1,140 Climbing Atlanta Center
08:10PM 33.6847 -85.8661 289° West 396 456 22,700 780 Climbing Atlanta Center
08:11PM 33.7244 -85.9994 290° West 405 466 23,300 600 Climbing Atlanta Center
08:12PM 33.7681 -86.1403 290° West 433 498 24,000 720 Climbing Atlanta Center
08:13PM 33.8114 -86.2814 290° West 450 518 24,800 720 Climbing Atlanta Center
08:14PM 33.8278 -86.4144 278° West 450 518 25,500 780 Climbing Atlanta Center
08:15PM 33.8475 -86.5675 279° West 456 525 26,400 900 Climbing Atlanta Center
08:16PM 33.8675 -86.7133 279° West 456 525 27,400 720 Climbing Atlanta Center
08:17PM 33.8892 -86.8642 280° West 456 525 27,900 300 Climbing Atlanta Center
08:18PM 33.9064 -87.0172 278° West 461 531 28,000  Climbing Atlanta Center
08:20PM 33.9481 -87.2547 282° West 459 528 28,000  Level Memphis Center
08:21PM 33.9706 -87.4092 280° West 459 528 28,000  Level Memphis Center
08:22PM 33.9931 -87.5589 280° West 459 528 28,000  Level Memphis Center
08:23PM 34.0192 -87.7058 282° West 458 527 28,000  Level Memphis Center
08:24PM 34.0411 -87.8581 280° West 458 527 28,000  Level Memphis Center
08:25PM 34.0583 -87.9903 279° West 458 527 28,000  Level Memphis Center
08:26PM 34.0819 -88.1378 281° West 452 520 28,000  Level Memphis Center
08:27PM 34.1094 -88.2925 282° West 458 527 28,000  Level Memphis Center
08:28PM 34.1578 -88.4344 292° West 464 534 28,000  Level Memphis Center
08:29PM 34.1975 -88.5842 288° West 469 540 28,000  Level Memphis Center
08:30PM 34.2225 -88.7369 281° West 469 540 28,000 -60 Level Memphis Center
08:31PM 34.2433 -88.8972 279° West 458 527 27,900  Descending Memphis Center
08:32PM 34.2658 -89.0478 280° West 453 521 28,000 -300 Climbing Memphis Center
08:33PM 34.2842 -89.2033 278° West 461 531 27,300 -840 Descending Memphis Center
08:34PM 34.3022 -89.3514 278° West 461 531 26,400 -720 Descending Memphis Center
08:35PM 34.3261 -89.5019 281° West 461 531 25,900 -240 Descending Memphis Center
08:36PM 34.3544 -89.6528 283° West 466 536 26,000  Climbing Memphis Center
08:37PM 34.3822 -89.8036 283° West 466 536 26,000 -180 Level Memphis Center
08:38PM 34.4036 -89.9417 281° West 471 542 25,700 -600 Descending Memphis Center
08:39PM 34.4250 -90.0978 279° West 471 542 24,800 -780 Descending Memphis Center
08:40PM 34.4522 -90.2489 282° West 464 534 24,200 -420 Descending Memphis Center
08:41PM 34.4733 -90.3975 280° West 459 528 24,000 -120 Descending Memphis Center
08:42PM 34.5003 -90.5561 282° West 451 519 24,000 -240 Level Memphis Center
08:43PM 34.5250 -90.7000 282° West 440 506 23,600 -840 Descending Memphis Center
08:44PM 34.5392 -90.8464 277° West 440 506 22,400 -1,260 Descending Memphis Center
08:45PM 34.5572 -90.9953 278° West 446 513 21,100 -1,140 Descending Memphis Center
08:46PM 34.5814 -91.1292 282° West 428 493 20,200 -1,980 Descending Memphis Center
08:47PM 34.6181 -91.2531 290° West 403 464 17,200 -3,120 Descending Memphis Center
08:47PM 34.6550 -91.3569 293° West 390 449 14,400 -2,880 Descending Memphis Center
08:49PM 34.6769 -91.4858 282° West 374 430 11,800 -1,800 Descending Memphis Center
08:50PM 34.7031 -91.5950 286° West 355 409 10,700 -1,140 Descending Memphis Center
08:50PM 34.7186 -91.6861 282° West 276 318 9,700 -1,680 Descending Memphis Center
08:51PM 34.7156 -91.7794 268° West 277 319 7,700 -1,740 Descending Memphis Center
08:52PM 34.7103 -91.8628 266° West 277 319 6,400 -900 Descending Memphis Center
08:53PM 34.6967 -91.9561 260° West 269 310 6,000 -660 Descending Memphis Center
08:54PM 34.6872 -92.0467 263° West 260 299 5,100 -1,260 Descending Memphis Center
08:55PM 34.6819 -92.1300 266° West 262 302 3,500 -1,620 Descending Memphis Center
08:56PM 34.6619 -92.2103 253° West 247 284 1,900 -1,140 Descending Memphis Center
08:57PM 34.6756 -92.2664 286° West 156 180 1,300 -660 Descending Memphis Center
08:58PM 34.7114 -92.2544 15° North 142 163 600 -720 Descending Memphis Center